createdAt,value
2019-05-05T00:02:15.560Z,98636.66
2019-05-05T00:04:49.684Z,98645.08
2019-05-05T00:07:25.373Z,98654.05
2019-05-05T00:09:58.306Z,98656.54
2019-05-05T00:12:41.420Z,98649.38
2019-05-05T00:15:16.308Z,98649.38
2019-05-05T00:17:49.160Z,98651.44
2019-05-05T00:20:21.670Z,98651.44
2019-05-05T00:22:56.513Z,98655.94
2019-05-05T00:25:28.903Z,98652.83
2019-05-05T00:28:01.775Z,98654.55
2019-05-05T00:30:34.461Z,98663.62
2019-05-05T00:33:07.301Z,98670.72
2019-05-05T00:35:39.982Z,98662.80
2019-05-05T00:38:14.309Z,98662.80
2019-05-05T00:40:47.339Z,98656.72
2019-05-05T00:43:21.635Z,98659.15
2019-05-05T00:45:55.850Z,98665.72
2019-05-05T00:48:48.220Z,98662.64
2019-05-05T00:51:21.443Z,98664.60
2019-05-05T00:53:55.480Z,98675.59
2019-05-05T00:56:28.321Z,98679.37
2019-05-05T00:59:04.478Z,98684.77
2019-05-05T01:01:55.277Z,98684.77
2019-05-05T01:04:45.598Z,98670.43
2019-05-05T01:07:18.298Z,98694.88
2019-05-05T01:09:51.719Z,98693.02
2019-05-05T01:12:24.536Z,98696.32
2019-05-05T01:14:56.981Z,98703.64
2019-05-05T01:17:29.531Z,98704.13
2019-05-05T01:20:04.579Z,98693.29
2019-05-05T01:22:36.600Z,98701.06
2019-05-05T01:25:10.315Z,98704.25
2019-05-05T01:27:45.160Z,98704.55
2019-05-05T01:30:24.444Z,98706.14
2019-05-05T01:33:11.351Z,98713.09
2019-05-05T01:35:44.905Z,98698.43
2019-05-05T01:38:31.474Z,98698.43
2019-05-05T01:41:10.641Z,98723.44
2019-05-05T01:43:45.262Z,98721.03
2019-05-05T01:46:18.821Z,98714.48
2019-05-05T01:48:54.913Z,98719.58
2019-05-05T01:51:27.663Z,98717.64
2019-05-05T01:54:00.293Z,98721.97
2019-05-05T01:56:35.086Z,98694.49
2019-05-05T01:59:07.288Z,98694.49
2019-05-05T02:01:39.565Z,98721.05
2019-05-05T02:04:14.289Z,98721.05
2019-05-05T02:06:46.335Z,98717.61
2019-05-05T02:09:24.951Z,98721.38
2019-05-05T02:11:57.586Z,98721.38
2019-05-05T02:14:30.273Z,98726.43
2019-05-05T02:17:01.791Z,98721.04
2019-05-05T02:19:36.841Z,98723.66
2019-05-05T02:22:09.538Z,98725.27
2019-05-05T02:24:44.249Z,98738.05
2019-05-05T02:27:49.357Z,98728.16
2019-05-05T02:30:26.633Z,98740.57
2019-05-05T02:32:59.639Z,98739.88
2019-05-05T02:35:35.147Z,98733.34
2019-05-05T02:38:07.502Z,98742.11
2019-05-05T02:40:41.503Z,98745.41
2019-05-05T02:43:15.048Z,98751.81
2019-05-05T02:46:20.866Z,98751.75
2019-05-05T02:48:56.664Z,98751.06
2019-05-05T02:51:31.397Z,98756.73
2019-05-05T02:54:08.462Z,98751.48
2019-05-05T02:56:45.444Z,98751.48
2019-05-05T02:59:23.836Z,98758.31
2019-05-05T03:02:07.287Z,98764.67
2019-05-05T03:04:39.711Z,98757.28
2019-05-05T03:07:15.453Z,98757.28
2019-05-05T03:09:51.352Z,98756.46
2019-05-05T03:12:26.322Z,98749.28
2019-05-05T03:15:00.104Z,98749.28
2019-05-05T03:17:34.081Z,98764.79
2019-05-05T03:20:10.990Z,98770.84
2019-05-05T03:22:45.366Z,98774.59
2019-05-05T03:25:17.984Z,98776.31
2019-05-05T03:27:50.517Z,98776.31
2019-05-05T03:30:26.030Z,98784.65
2019-05-05T03:32:57.777Z,98775.06
2019-05-05T03:35:30.402Z,98775.06
2019-05-05T03:38:05.092Z,98770.73
2019-05-05T03:40:39.325Z,98770.73
2019-05-05T03:43:14.514Z,98753.41
2019-05-05T03:45:50.800Z,98760.67
2019-05-05T03:48:24.286Z,98760.67
2019-05-05T03:50:58.756Z,98787.76
2019-05-05T03:53:33.763Z,98787.76
2019-05-05T03:56:06.858Z,98787.55
2019-05-05T03:58:39.465Z,98787.62
2019-05-05T04:01:51.351Z,98789.70
2019-05-05T04:04:33.438Z,98772.58
2019-05-05T04:07:07.289Z,98772.58
2019-05-05T04:09:39.852Z,98750.45
2019-05-05T04:12:14.295Z,98750.45
2019-05-05T04:14:47.869Z,98782.52
2019-05-05T04:17:21.231Z,98782.52
2019-05-05T04:20:03.655Z,98782.72
2019-05-05T04:22:35.527Z,98786.39
2019-05-05T04:25:08.842Z,98780.66
2019-05-05T04:27:41.297Z,98781.77
2019-05-05T04:30:14.371Z,98790.56
2019-05-05T04:32:47.018Z,98790.56
2019-05-05T04:35:24.469Z,98783.97
2019-05-05T04:37:56.609Z,98784.73
2019-05-05T04:40:29.000Z,98794.19
2019-05-05T04:43:01.348Z,98793.12
2019-05-05T04:45:34.688Z,98766.52
2019-05-05T04:48:13.656Z,98766.52
2019-05-05T04:50:47.442Z,98796.59
2019-05-05T04:53:21.455Z,98793.83
2019-05-05T04:55:53.809Z,98798.28
2019-05-05T04:58:29.280Z,98811.87
2019-05-05T05:01:01.679Z,98784.23
2019-05-05T05:03:43.773Z,98784.23
2019-05-05T05:06:17.699Z,98808.59
2019-05-05T05:08:53.609Z,98809.61
2019-05-05T05:11:26.285Z,98813.13
2019-05-05T05:14:00.296Z,98812.66
2019-05-05T05:16:35.738Z,98824.03
2019-05-05T05:19:08.286Z,98824.03
2019-05-05T05:21:40.822Z,98828.59
2019-05-05T05:24:14.651Z,98828.59
2019-05-05T05:26:47.279Z,98845.86
2019-05-05T05:29:19.606Z,98853.78
2019-05-05T05:31:53.573Z,98853.78
2019-05-05T05:34:26.240Z,98855.30
2019-05-05T05:36:58.506Z,98857.28
2019-05-05T05:39:44.445Z,98859.06
2019-05-05T05:42:18.449Z,98861.17
2019-05-05T05:44:53.520Z,98874.34
2019-05-05T05:47:33.871Z,98875.11
2019-05-05T05:50:14.310Z,98880.47
2019-05-05T05:52:47.297Z,98893.06
2019-05-05T05:55:20.304Z,98897.19
2019-05-05T05:57:54.332Z,98886.64
2019-05-05T06:00:27.037Z,98895.76
2019-05-05T06:03:00.295Z,98895.76
2019-05-05T06:05:34.289Z,98907.97
2019-05-05T06:08:07.037Z,98907.97
2019-05-05T06:10:39.455Z,98902.41
2019-05-05T06:13:14.882Z,98902.37
2019-05-05T06:15:46.379Z,98918.87
2019-05-05T06:18:18.823Z,98883.01
2019-05-05T06:20:51.374Z,98883.01
2019-05-05T06:23:24.278Z,98908.32
2019-05-05T06:25:56.552Z,98889.00
2019-05-05T06:30:34.304Z,98915.72
2019-05-05T06:33:07.033Z,98933.55
2019-05-05T06:35:39.447Z,98933.55
2019-05-05T06:38:13.468Z,98943.44
2019-05-05T06:41:04.177Z,98947.05
2019-05-05T06:43:44.149Z,98950.08
2019-05-05T06:46:31.453Z,98957.88
2019-05-05T06:49:04.341Z,98950.16
2019-05-05T06:51:37.034Z,98946.05
2019-05-05T06:54:10.043Z,98960.72
2019-05-05T06:56:44.524Z,98959.27
2019-05-05T06:59:17.274Z,98956.35
2019-05-05T07:01:49.646Z,98951.45
2019-05-05T07:04:24.540Z,98951.45
2019-05-05T07:06:57.649Z,98969.50
2019-05-05T07:09:30.294Z,98967.94
2019-05-05T07:12:04.595Z,98981.08
2019-05-05T07:14:36.667Z,98982.56
2019-05-05T07:17:09.287Z,98982.56
2019-05-05T07:19:44.993Z,98987.22
2019-05-05T07:22:17.900Z,98982.82
2019-05-05T07:24:50.334Z,98982.82
2019-05-05T07:30:13.705Z,99001.13
2019-05-05T07:32:46.295Z,99009.70
2019-05-05T07:35:24.654Z,99015.69
2019-05-05T07:37:57.292Z,99018.81
2019-05-05T07:40:29.833Z,99032.50
2019-05-05T07:43:04.356Z,99032.50
2019-05-05T07:45:37.057Z,99021.47
2019-05-05T07:48:09.726Z,99018.27
2019-05-05T07:50:45.044Z,99019.32
2019-05-05T07:53:17.967Z,99024.91
2019-05-05T07:55:50.821Z,99026.94
2019-05-05T07:58:25.142Z,99026.94
2019-05-05T08:00:59.818Z,99030.16
2019-05-05T08:03:33.898Z,99035.48
2019-05-05T08:06:08.345Z,99038.79
2019-05-05T08:08:44.334Z,99035.03
2019-05-05T08:11:16.949Z,99035.03
2019-05-05T08:13:49.566Z,99043.22
2019-05-05T08:16:39.581Z,99040.59
2019-05-05T08:19:29.345Z,99036.84
2019-05-05T08:22:03.742Z,99039.37
2019-05-05T08:24:54.522Z,99039.37
2019-05-05T08:27:27.285Z,99037.65
2019-05-05T08:30:05.218Z,99039.77
2019-05-05T08:32:39.607Z,99039.77
2019-05-05T08:35:14.679Z,99034.36
2019-05-05T08:37:46.874Z,99035.38
2019-05-05T08:40:20.297Z,99047.77
2019-05-05T08:42:53.913Z,99043.66
2019-05-05T08:45:26.852Z,99043.66
2019-05-05T08:47:59.406Z,99044.67
2019-05-05T08:50:32.050Z,99047.06
2019-05-05T08:53:06.749Z,99046.75
2019-05-05T08:55:39.038Z,99048.13
2019-05-05T08:58:11.811Z,99048.13
2019-05-05T09:00:44.985Z,99046.63
2019-05-05T09:03:17.665Z,99042.25
2019-05-05T09:05:50.295Z,99038.59
2019-05-05T09:08:24.130Z,99036.62
2019-05-05T09:10:57.076Z,99036.62
2019-05-05T09:13:29.705Z,99034.63
2019-05-05T09:16:03.738Z,99029.92
2019-05-05T09:18:38.294Z,99026.73
2019-05-05T09:21:11.064Z,99020.53
2019-05-05T09:23:58.957Z,99027.03
2019-05-05T09:26:30.774Z,99020.66
2019-05-05T09:29:21.303Z,99019.61
2019-05-05T09:31:54.368Z,99025.34
2019-05-05T09:34:26.826Z,98986.05
2019-05-05T09:37:03.158Z,98986.05
2019-05-05T09:39:36.298Z,99032.09
2019-05-05T09:42:09.080Z,99026.02
2019-05-05T09:44:43.623Z,99026.02
2019-05-05T09:47:15.096Z,99034.20
2019-05-05T09:49:47.364Z,99027.34
2019-05-05T09:52:20.695Z,99031.78
2019-05-05T09:54:55.852Z,99030.58
2019-05-05T09:57:27.689Z,99030.58
2019-05-05T10:00:01.894Z,99029.25
2019-05-05T10:02:34.965Z,99019.63
2019-05-05T10:05:10.273Z,99019.63
2019-05-05T10:07:44.059Z,99022.27
2019-05-05T10:10:19.329Z,99023.23
2019-05-05T10:12:52.954Z,99016.86
2019-05-05T10:15:26.371Z,99016.86
2019-05-05T10:17:59.024Z,99029.01
2019-05-05T10:20:31.707Z,99029.01
2019-05-05T10:23:04.538Z,99033.55
2019-05-05T10:25:41.529Z,99031.87
2019-05-05T10:28:14.289Z,99046.05
2019-05-05T10:30:47.305Z,99030.08
2019-05-05T10:33:19.779Z,99021.02
2019-05-05T10:35:54.113Z,99021.02
2019-05-05T10:38:27.306Z,99030.11
2019-05-05T10:40:59.688Z,99028.85
2019-05-05T10:43:34.346Z,99028.85
2019-05-05T10:46:07.350Z,99022.11
2019-05-05T10:48:40.030Z,99025.52
2019-05-05T10:51:12.916Z,99011.88
2019-05-05T10:53:45.534Z,99011.88
2019-05-05T10:56:18.350Z,99020.06
2019-05-05T10:58:51.305Z,99021.02
2019-05-05T11:01:24.334Z,99018.86
2019-05-05T11:03:56.595Z,99018.86
2019-05-05T11:06:29.400Z,99014.76
2019-05-05T11:09:04.326Z,99013.80
2019-05-05T11:11:37.411Z,99021.39
2019-05-05T11:14:10.522Z,99017.56
2019-05-05T11:16:44.512Z,99015.91
2019-05-05T11:19:17.479Z,99018.17
2019-05-05T11:21:50.442Z,99017.30
2019-05-05T11:24:24.660Z,99017.69
2019-05-05T11:26:57.383Z,99016.91
2019-05-05T11:29:30.569Z,99016.97
2019-05-05T11:32:05.311Z,99020.20
2019-05-05T11:34:39.299Z,99023.61
2019-05-05T11:37:13.367Z,99003.92
2019-05-05T11:39:45.884Z,99013.28
2019-05-05T11:42:19.293Z,99013.28
2019-05-05T11:44:54.102Z,99020.72
2019-05-05T11:47:27.356Z,99020.72
2019-05-05T11:50:00.504Z,99034.97
2019-05-05T11:52:33.732Z,99033.63
2019-05-05T11:55:11.494Z,99034.13
2019-05-05T11:57:41.298Z,99027.64
2019-05-05T12:00:14.465Z,99044.60
2019-05-05T12:02:47.304Z,99043.04
2019-05-05T12:05:24.386Z,99041.15
2019-05-05T12:07:57.308Z,99041.36
2019-05-05T12:10:29.651Z,99034.16
2019-05-05T12:13:04.333Z,99027.66
2019-05-05T12:17:38.435Z,99044.69
2019-05-05T12:20:13.599Z,99054.50
2019-05-05T12:22:46.506Z,99061.88
2019-05-05T12:25:37.020Z,99057.41
2019-05-05T12:28:10.682Z,99059.55
2019-05-05T12:30:44.404Z,99062.39
2019-05-05T12:33:17.336Z,99054.50
2019-05-05T12:35:49.945Z,99049.75
2019-05-05T12:38:24.120Z,99049.75
2019-05-05T12:40:58.217Z,99052.66
2019-05-05T12:43:31.040Z,99048.95
2019-05-05T12:46:20.785Z,99051.06
2019-05-05T12:48:54.896Z,99044.67
2019-05-05T12:51:28.655Z,99044.93
2019-05-05T12:54:01.298Z,99043.91
2019-05-05T12:56:34.183Z,99015.84
2019-05-05T12:59:09.115Z,99041.49
2019-05-05T13:01:44.140Z,99026.98
2019-05-05T13:04:18.441Z,99044.72
2019-05-05T13:06:51.126Z,99044.72
2019-05-05T13:09:24.489Z,99043.76
2019-05-05T13:11:57.803Z,99044.09
2019-05-05T13:14:30.505Z,99047.37
2019-05-05T13:17:03.659Z,99045.66
2019-05-05T13:19:38.293Z,99039.98
2019-05-05T13:22:18.497Z,99020.48
2019-05-05T13:25:09.282Z,99020.48
2019-05-05T13:27:43.394Z,99035.19
2019-05-05T13:30:16.436Z,99035.19
2019-05-05T13:32:49.011Z,99031.36
2019-05-05T13:35:23.500Z,99032.56
2019-05-05T13:37:57.839Z,99017.14
2019-05-05T13:40:43.972Z,99017.14
2019-05-05T13:43:21.291Z,99034.99
2019-05-05T13:45:58.655Z,99027.59
2019-05-05T13:48:31.317Z,99029.59
2019-05-05T13:51:05.361Z,99024.70
2019-05-05T13:53:38.455Z,99024.70
2019-05-05T13:56:12.578Z,99029.00
2019-05-05T13:58:45.293Z,99023.55
2019-05-05T14:01:17.786Z,99001.56
2019-05-05T14:03:54.167Z,99001.56
2019-05-05T14:06:27.826Z,99016.39
2019-05-05T14:09:00.702Z,99009.00
2019-05-05T14:11:35.336Z,99020.89
2019-05-05T14:14:07.236Z,99020.89
2019-05-05T14:16:39.811Z,98999.98
2019-05-05T14:19:11.512Z,98999.98
2019-05-05T14:21:44.648Z,99015.31
2019-05-05T14:24:19.196Z,99013.72
2019-05-05T14:26:51.666Z,99001.81
2019-05-05T14:29:42.624Z,99001.81
2019-05-05T14:32:16.771Z,99007.54
2019-05-05T14:34:51.265Z,99008.28
2019-05-05T14:37:28.307Z,99002.20
2019-05-05T14:40:00.760Z,99006.32
2019-05-05T14:42:34.829Z,99006.32
2019-05-05T14:45:09.578Z,98997.91
2019-05-05T14:47:44.137Z,99002.36
2019-05-05T14:50:18.327Z,98996.52
2019-05-05T14:52:53.450Z,98998.22
2019-05-05T14:55:25.580Z,98970.72
2019-05-05T14:57:58.348Z,98970.72
2019-05-05T15:00:31.296Z,98973.24
2019-05-05T15:03:04.344Z,98973.24
2019-05-05T15:05:36.562Z,98994.78
2019-05-05T15:08:27.054Z,98994.29
2019-05-05T15:11:17.327Z,98993.13
2019-05-05T15:13:51.439Z,98995.94
2019-05-05T15:16:24.477Z,98996.69
2019-05-05T15:18:58.595Z,98988.73
2019-05-05T15:21:33.974Z,98988.03
2019-05-05T15:24:07.573Z,98986.92
2019-05-05T15:26:51.315Z,98985.56
2019-05-05T15:29:14.358Z,98996.22
2019-05-05T15:31:53.880Z,98987.34
2019-05-05T15:34:24.277Z,98987.34
2019-05-05T15:36:58.647Z,98988.69
2019-05-05T15:39:31.042Z,98984.83
2019-05-05T15:42:04.716Z,98987.48
2019-05-05T15:44:37.334Z,98985.30
2019-05-05T15:47:09.607Z,98968.44
2019-05-05T15:49:43.913Z,98968.44
2019-05-05T15:52:16.487Z,98991.56
2019-05-05T15:54:49.041Z,98985.88
2019-05-05T15:57:21.437Z,98982.22
2019-05-05T15:59:54.290Z,98994.67
2019-05-05T16:02:28.806Z,98995.17
2019-05-05T16:05:01.292Z,98997.19
2019-05-05T16:07:33.399Z,99001.40
2019-05-05T16:10:16.268Z,98997.77
2019-05-05T16:12:48.808Z,98989.05
2019-05-05T16:15:30.524Z,98998.60
2019-05-05T16:18:13.749Z,98993.69
2019-05-05T16:20:50.632Z,99000.09
2019-05-05T16:23:24.662Z,98990.93
2019-05-05T16:25:57.292Z,98997.88
2019-05-05T16:29:18.680Z,98987.34
2019-05-05T16:31:51.313Z,99001.23
2019-05-05T16:34:23.803Z,98984.84
2019-05-05T16:36:57.005Z,98984.84
2019-05-05T16:40:33.868Z,98998.48
2019-05-05T16:43:06.638Z,98997.56
2019-05-05T16:45:39.291Z,99006.92
2019-05-05T16:48:13.315Z,99003.22
2019-05-05T16:50:46.384Z,99007.78
2019-05-05T16:53:38.413Z,99005.73
2019-05-05T16:56:16.332Z,99005.73
2019-05-05T16:58:48.800Z,99008.52
2019-05-05T17:01:22.629Z,99008.52
2019-05-05T17:04:07.691Z,99010.59
2019-05-05T17:06:29.626Z,99009.05
2019-05-05T17:09:04.506Z,99007.40
2019-05-05T17:11:37.507Z,99010.05
2019-05-05T17:14:16.456Z,99007.88
2019-05-05T17:16:56.710Z,99016.51
2019-05-05T17:19:33.886Z,99013.06
2019-05-05T17:22:08.310Z,99014.51
2019-05-05T17:24:45.305Z,99020.25
2019-05-05T17:27:17.776Z,99021.06
2019-05-05T17:29:50.514Z,99021.06
2019-05-05T17:32:24.918Z,99026.96
2019-05-05T17:34:57.551Z,99032.12
2019-05-05T17:37:30.302Z,99031.13
2019-05-05T17:40:04.533Z,99028.19
2019-05-05T17:42:38.564Z,99028.19
2019-05-05T17:45:14.363Z,99033.62
2019-05-05T17:47:48.539Z,99043.73
2019-05-05T17:50:28.603Z,99034.97
2019-05-05T17:53:11.781Z,99035.34
2019-05-05T17:55:44.492Z,99037.86
2019-05-05T17:58:17.329Z,99045.20
2019-05-05T18:00:54.617Z,99046.08
2019-05-05T18:03:27.370Z,99046.08
2019-05-05T18:06:11.395Z,99047.31
2019-05-05T18:08:48.344Z,99028.13
2019-05-05T18:11:28.018Z,99028.13
2019-05-05T18:14:03.935Z,99048.84
2019-05-05T18:16:36.887Z,99057.11
2019-05-05T18:19:09.362Z,99055.66
2019-05-05T18:21:43.778Z,99052.90
2019-05-05T18:24:17.775Z,99052.90
2019-05-05T18:26:50.321Z,99057.83
2019-05-05T18:29:24.254Z,99059.81
2019-05-05T18:31:56.907Z,99080.68
2019-05-05T18:34:30.427Z,99055.45
2019-05-05T18:37:03.769Z,99065.80
2019-05-05T18:39:36.417Z,99065.09
2019-05-05T18:42:10.454Z,99080.03
2019-05-05T18:44:47.363Z,99075.09
2019-05-05T18:47:21.482Z,99048.60
2019-05-05T18:49:58.649Z,99048.60
2019-05-05T18:52:31.609Z,99084.36
2019-05-05T18:55:12.823Z,99079.80
2019-05-05T18:57:46.313Z,99074.95
2019-05-05T19:00:24.330Z,99082.16
2019-05-05T19:03:17.533Z,99077.73
2019-05-05T19:05:43.904Z,99077.73
2019-05-05T19:08:24.334Z,99088.61
2019-05-05T19:10:56.934Z,99095.09
2019-05-05T19:13:30.681Z,99098.88
2019-05-05T19:16:03.655Z,99100.69
2019-05-05T19:18:37.456Z,99094.73
2019-05-05T19:21:19.592Z,99100.59
2019-05-05T19:23:54.180Z,99098.98
2019-05-05T19:26:27.513Z,99078.45
2019-05-05T19:29:02.335Z,99078.45
2019-05-05T19:31:43.803Z,99108.08
2019-05-05T19:34:16.505Z,99108.08
2019-05-05T19:36:49.057Z,99108.77
2019-05-05T19:39:24.300Z,99111.20
2019-05-05T19:41:57.040Z,99106.99
2019-05-05T19:44:30.873Z,99119.27
2019-05-05T19:47:06.305Z,99119.27
2019-05-05T19:49:40.539Z,99091.02
2019-05-05T19:52:13.620Z,99091.02
2019-05-05T19:54:47.538Z,99119.70
2019-05-05T19:57:20.312Z,99118.02
2019-05-05T19:59:54.300Z,99099.33
2019-05-05T20:02:26.803Z,99099.33
2019-05-05T20:05:01.301Z,99114.73
2019-05-05T20:07:34.309Z,99114.73
2019-05-05T20:10:08.347Z,99087.83
2019-05-05T20:12:43.824Z,99115.52
2019-05-05T20:15:17.320Z,99115.52
2019-05-05T20:17:49.711Z,99119.05
2019-05-05T20:20:22.328Z,99119.05
2019-05-05T20:22:54.784Z,99116.48
2019-05-05T20:25:27.374Z,99117.88
2019-05-05T20:28:01.359Z,99113.47
2019-05-05T20:30:34.332Z,99113.17
2019-05-05T20:33:16.658Z,99113.17
2019-05-05T20:35:59.861Z,99116.14
2019-05-05T20:38:37.207Z,99119.97
2019-05-05T20:41:11.328Z,99127.88
2019-05-05T20:43:44.858Z,99118.06
2019-05-05T20:46:17.268Z,99118.06
2019-05-05T20:48:49.612Z,99116.30
2019-05-05T20:51:24.132Z,99108.13
2019-05-05T20:53:55.587Z,99115.02
2019-05-05T20:56:28.536Z,99115.02
2019-05-05T20:59:01.308Z,99118.66
2019-05-05T21:01:34.282Z,99109.34
2019-05-05T21:04:07.311Z,99109.34
2019-05-05T21:06:39.769Z,99102.69
2019-05-05T21:09:14.218Z,99102.69
2019-05-05T21:11:46.586Z,99104.33
2019-05-05T21:14:31.163Z,99104.16
2019-05-05T21:16:54.697Z,99115.30
2019-05-05T21:19:27.360Z,99111.38
2019-05-05T21:22:04.233Z,99104.80
2019-05-05T21:24:36.813Z,99104.00
2019-05-05T21:27:09.395Z,99104.00
2019-05-05T21:29:42.466Z,99112.98
2019-05-05T21:32:15.295Z,99112.98
2019-05-05T21:34:48.347Z,99110.23
2019-05-05T21:37:21.298Z,99110.23
2019-05-05T21:39:55.152Z,99103.17
2019-05-05T21:42:28.066Z,99103.17
2019-05-05T21:45:01.420Z,99099.08
2019-05-05T21:47:34.520Z,99101.70
2019-05-05T21:50:10.527Z,99104.80
2019-05-05T21:52:47.532Z,99113.45
2019-05-05T21:55:24.675Z,99109.98
2019-05-05T21:58:13.493Z,99110.96
2019-05-05T22:00:48.711Z,99109.13
2019-05-05T22:03:34.556Z,99111.91
2019-05-05T22:06:08.321Z,99108.93
2019-05-05T22:08:41.292Z,99113.14
2019-05-05T22:11:14.802Z,99103.50
2019-05-05T22:13:47.807Z,99103.50
2019-05-05T22:16:20.531Z,99117.23
2019-05-05T22:18:54.290Z,99120.64
2019-05-05T22:21:36.003Z,99102.94
2019-05-05T22:24:16.201Z,99091.25
2019-05-05T22:26:49.098Z,99118.45
2019-05-05T22:29:24.872Z,99125.12
2019-05-05T22:31:57.129Z,99125.12
2019-05-05T22:34:29.427Z,99115.45
2019-05-05T22:37:05.395Z,99128.52
2019-05-05T22:39:36.443Z,99122.94
2019-05-05T22:42:09.286Z,99122.94
2019-05-05T22:44:41.679Z,99110.84
2019-05-05T22:47:14.363Z,99110.84
2019-05-05T22:49:46.717Z,99128.26
2019-05-05T22:52:19.304Z,99128.26
2019-05-05T22:54:51.686Z,99124.91
2019-05-05T22:57:24.712Z,99124.91
2019-05-05T22:59:57.532Z,99125.25
2019-05-05T23:02:34.003Z,99122.25
2019-05-05T23:05:10.300Z,99122.54
2019-05-05T23:07:43.829Z,99127.77
2019-05-05T23:10:16.279Z,99125.98
2019-05-05T23:12:48.552Z,99127.42
2019-05-05T23:15:20.261Z,99130.50
2019-05-05T23:17:55.490Z,99129.67
2019-05-05T23:20:53.953Z,99129.62
2019-05-05T23:23:44.103Z,99134.36
2019-05-05T23:26:27.503Z,99123.87
2019-05-05T23:29:00.063Z,99132.34
2019-05-05T23:31:33.569Z,99130.86
2019-05-05T23:34:07.495Z,99134.27
2019-05-05T23:36:39.935Z,99135.25
2019-05-05T23:39:13.594Z,99133.13
2019-05-05T23:41:46.339Z,99139.61
2019-05-05T23:44:19.044Z,99143.98
2019-05-05T23:46:53.572Z,99143.98
2019-05-05T23:49:25.806Z,99142.95
2019-05-05T23:51:59.553Z,99137.16
2019-05-05T23:54:34.113Z,99133.23
2019-05-05T23:57:06.719Z,99135.44
2019-05-05T23:59:39.366Z,99136.43
